sensor_id;sensor_type;location;lat;lon;timestamp;temperature;humidity
2391;DHT22;22957;50.824;4.360;2024-02-14T00:01:31;11.30;99.90
2391;DHT22;22957;50.824;4.360;2024-02-14T00:03:56;11.30;99.90
2391;DHT22;22957;50.824;4.360;2024-02-14T00:06:22;11.50;99.90
2391;DHT22;22957;50.824;4.360;2024-02-14T00:08:49;11.80;99.90
2391;DHT22;22957;50.824;4.360;2024-02-14T00:11:14;11.50;99.90
2391;DHT22;22957;50.824;4.360;2024-02-14T00:13:40;11.20;99.90
2391;DHT22;22957;50.824;4.360;2024-02-14T00:16:06;11.70;99.90
2391;DHT22;22957;50.824;4.360;2024-02-14T00:18:32;11.40;99.90
2391;DHT22;22957;50.824;4.360;2024-02-14T00:20:57;11.60;99.90
2391;DHT22;22957;50.824;4.360;2024-02-14T00:23:23;11.50;99.90
2391;DHT22;22957;50.824;4.360;2024-02-14T00:25:48;11.30;99.90
2391;DHT22;22957;50.824;4.360;2024-02-14T00:28:14;11.30;99.90
2391;DHT22;22957;50.824;4.360;2024-02-14T00:30:39;11.80;99.90
2391;DHT22;22957;50.824;4.360;2024-02-14T00:33:05;12.00;99.90
2391;DHT22;22957;50.824;4.360;2024-02-14T00:35:30;11.50;99.90
2391;DHT22;22957;50.824;4.360;2024-02-14T00:37:56;11.70;99.90
2391;DHT22;22957;50.824;4.360;2024-02-14T00:40:22;11.90;99.90
2391;DHT22;22957;50.824;4.360;2024-02-14T00:42:48;11.30;99.90
2391;DHT22;22957;50.824;4.360;2024-02-14T00:45:13;11.50;99.90
2391;DHT22;22957;50.824;4.360;2024-02-14T00:47:39;11.80;99.90
2391;DHT22;22957;50.824;4.360;2024-02-14T00:50:05;12.00;99.90
2391;DHT22;22957;50.824;4.360;2024-02-14T00:52:31;11.80;99.90
2391;DHT22;22957;50.824;4.360;2024-02-14T00:54:57;11.90;99.90
2391;DHT22;22957;50.824;4.360;2024-02-14T00:57:23;11.60;99.90
2391;DHT22;22957;50.824;4.360;2024-02-14T00:59:52;11.70;99.90
2391;DHT22;22957;50.824;4.360;2024-02-14T01:02:18;11.70;99.90
2391;DHT22;22957;50.824;4.360;2024-02-14T01:04:44;11.60;99.90
2391;DHT22;22957;50.824;4.360;2024-02-14T01:07:09;11.30;99.90
2391;DHT22;22957;50.824;4.360;2024-02-14T01:09:35;11.40;99.90
2391;DHT22;22957;50.824;4.360;2024-02-14T01:12:02;11.70;99.90
2391;DHT22;22957;50.824;4.360;2024-02-14T01:14:27;11.50;99.90
2391;DHT22;22957;50.824;4.360;2024-02-14T01:16:53;11.70;99.90
2391;DHT22;22957;50.824;4.360;2024-02-14T01:19:19;11.70;99.90
2391;DHT22;22957;50.824;4.360;2024-02-14T01:21:45;11.60;99.90
2391;DHT22;22957;50.824;4.360;2024-02-14T01:24:14;11.40;99.90
2391;DHT22;22957;50.824;4.360;2024-02-14T01:26:40;11.60;99.90
2391;DHT22;22957;50.824;4.360;2024-02-14T01:29:06;11.50;99.90
2391;DHT22;22957;50.824;4.360;2024-02-14T01:31:33;11.70;99.90
2391;DHT22;22957;50.824;4.360;2024-02-14T01:33:59;11.60;99.90
2391;DHT22;22957;50.824;4.360;2024-02-14T01:36:28;11.50;99.90
2391;DHT22;22957;50.824;4.360;2024-02-14T01:38:54;11.20;99.90
2391;DHT22;22957;50.824;4.360;2024-02-14T01:41:19;11.50;99.90
2391;DHT22;22957;50.824;4.360;2024-02-14T01:43:47;11.60;99.90
2391;DHT22;22957;50.824;4.360;2024-02-14T01:46:13;11.60;99.90
2391;DHT22;22957;50.824;4.360;2024-02-14T01:48:40;11.60;99.90
2391;DHT22;22957;50.824;4.360;2024-02-14T01:51:08;11.70;99.90
2391;DHT22;22957;50.824;4.360;2024-02-14T01:53:36;11.30;99.90
2391;DHT22;22957;50.824;4.360;2024-02-14T01:56:03;11.70;99.90
2391;DHT22;22957;50.824;4.360;2024-02-14T01:58:30;11.40;99.90
2391;DHT22;22957;50.824;4.360;2024-02-14T02:00:56;11.50;99.90
2391;DHT22;22957;50.824;4.360;2024-02-14T02:03:25;11.90;99.90
2391;DHT22;22957;50.824;4.360;2024-02-14T02:05:54;11.60;99.90
2391;DHT22;22957;50.824;4.360;2024-02-14T02:08:21;11.70;99.90
2391;DHT22;22957;50.824;4.360;2024-02-14T02:10:46;11.70;99.90
2391;DHT22;22957;50.824;4.360;2024-02-14T02:13:12;11.60;99.90
2391;DHT22;22957;50.824;4.360;2024-02-14T02:15:38;11.60;99.90
2391;DHT22;22957;50.824;4.360;2024-02-14T02:18:04;11.60;99.90
2391;DHT22;22957;50.824;4.360;2024-02-14T02:20:31;11.90;99.90
2391;DHT22;22957;50.824;4.360;2024-02-14T02:22:58;11.80;99.90
2391;DHT22;22957;50.824;4.360;2024-02-14T02:25:24;11.60;99.90
2391;DHT22;22957;50.824;4.360;2024-02-14T02:27:52;11.70;99.90
2391;DHT22;22957;50.824;4.360;2024-02-14T02:30:22;11.80;99.90
2391;DHT22;22957;50.824;4.360;2024-02-14T02:32:47;11.50;99.90
2391;DHT22;22957;50.824;4.360;2024-02-14T02:35:13;11.50;99.90
2391;DHT22;22957;50.824;4.360;2024-02-14T02:37:39;11.50;99.90
2391;DHT22;22957;50.824;4.360;2024-02-14T02:40:05;11.50;99.90
2391;DHT22;22957;50.824;4.360;2024-02-14T02:42:30;11.40;99.90
2391;DHT22;22957;50.824;4.360;2024-02-14T02:44:56;11.50;99.90
2391;DHT22;22957;50.824;4.360;2024-02-14T02:47:21;11.30;99.90
2391;DHT22;22957;50.824;4.360;2024-02-14T02:49:47;11.80;99.90
2391;DHT22;22957;50.824;4.360;2024-02-14T02:52:13;11.70;99.90
2391;DHT22;22957;50.824;4.360;2024-02-14T02:54:38;11.60;99.90
2391;DHT22;22957;50.824;4.360;2024-02-14T02:57:12;11.80;99.90
2391;DHT22;22957;50.824;4.360;2024-02-14T02:59:38;11.50;99.90
2391;DHT22;22957;50.824;4.360;2024-02-14T03:02:08;12.10;99.90
2391;DHT22;22957;50.824;4.360;2024-02-14T03:04:35;12.00;99.90
2391;DHT22;22957;50.824;4.360;2024-02-14T03:07:00;11.90;99.90
2391;DHT22;22957;50.824;4.360;2024-02-14T03:09:32;11.80;99.90
2391;DHT22;22957;50.824;4.360;2024-02-14T03:11:57;12.20;99.90
2391;DHT22;22957;50.824;4.360;2024-02-14T03:14:23;12.20;99.90
2391;DHT22;22957;50.824;4.360;2024-02-14T03:16:49;12.30;99.90
2391;DHT22;22957;50.824;4.360;2024-02-14T03:19:14;12.20;99.90
2391;DHT22;22957;50.824;4.360;2024-02-14T03:21:40;12.20;99.90
2391;DHT22;22957;50.824;4.360;2024-02-14T03:24:06;12.00;99.90
2391;DHT22;22957;50.824;4.360;2024-02-14T03:26:34;11.60;99.90
2391;DHT22;22957;50.824;4.360;2024-02-14T03:29:01;11.80;99.90
2391;DHT22;22957;50.824;4.360;2024-02-14T03:31:27;11.60;99.90
2391;DHT22;22957;50.824;4.360;2024-02-14T03:33:53;11.90;99.90
2391;DHT22;22957;50.824;4.360;2024-02-14T03:36:19;12.00;99.90
2391;DHT22;22957;50.824;4.360;2024-02-14T03:38:45;11.70;99.90
2391;DHT22;22957;50.824;4.360;2024-02-14T03:41:12;11.80;99.90
2391;DHT22;22957;50.824;4.360;2024-02-14T03:43:38;11.80;99.90
2391;DHT22;22957;50.824;4.360;2024-02-14T03:46:04;11.80;99.90
2391;DHT22;22957;50.824;4.360;2024-02-14T03:48:30;11.80;99.90
2391;DHT22;22957;50.824;4.360;2024-02-14T03:50:56;11.90;99.90
2391;DHT22;22957;50.824;4.360;2024-02-14T03:53:22;11.70;99.90
2391;DHT22;22957;50.824;4.360;2024-02-14T03:55:48;12.00;99.90
2391;DHT22;22957;50.824;4.360;2024-02-14T03:58:14;11.70;99.90
2391;DHT22;22957;50.824;4.360;2024-02-14T04:00:42;12.10;99.90
2391;DHT22;22957;50.824;4.360;2024-02-14T04:03:12;11.90;99.90
2391;DHT22;22957;50.824;4.360;2024-02-14T04:05:38;11.70;99.90
2391;DHT22;22957;50.824;4.360;2024-02-14T04:08:04;11.90;99.90
2391;DHT22;22957;50.824;4.360;2024-02-14T04:10:29;11.60;99.90
2391;DHT22;22957;50.824;4.360;2024-02-14T04:12:55;11.50;99.90
2391;DHT22;22957;50.824;4.360;2024-02-14T04:15:21;11.50;99.90
2391;DHT22;22957;50.824;4.360;2024-02-14T04:17:47;11.90;99.90
2391;DHT22;22957;50.824;4.360;2024-02-14T04:20:12;11.60;99.90
2391;DHT22;22957;50.824;4.360;2024-02-14T04:22:38;12.00;99.90
2391;DHT22;22957;50.824;4.360;2024-02-14T04:25:04;11.70;99.90
2391;DHT22;22957;50.824;4.360;2024-02-14T04:27:30;11.50;99.90
2391;DHT22;22957;50.824;4.360;2024-02-14T04:29:55;12.00;99.90
2391;DHT22;22957;50.824;4.360;2024-02-14T04:32:21;11.80;99.90
2391;DHT22;22957;50.824;4.360;2024-02-14T04:34:47;11.80;99.90
2391;DHT22;22957;50.824;4.360;2024-02-14T04:37:14;11.60;99.90
2391;DHT22;22957;50.824;4.360;2024-02-14T04:39:41;11.80;99.90
2391;DHT22;22957;50.824;4.360;2024-02-14T04:42:07;12.40;99.90
2391;DHT22;22957;50.824;4.360;2024-02-14T04:44:33;12.10;99.90
2391;DHT22;22957;50.824;4.360;2024-02-14T04:46:59;12.20;99.90
2391;DHT22;22957;50.824;4.360;2024-02-14T04:49:25;12.30;99.90
2391;DHT22;22957;50.824;4.360;2024-02-14T04:51:52;12.30;99.90
2391;DHT22;22957;50.824;4.360;2024-02-14T04:54:18;12.10;99.90
2391;DHT22;22957;50.824;4.360;2024-02-14T04:56:44;12.40;99.90
2391;DHT22;22957;50.824;4.360;2024-02-14T04:59:11;12.20;99.90
2391;DHT22;22957;50.824;4.360;2024-02-14T05:01:36;12.20;99.90
2391;DHT22;22957;50.824;4.360;2024-02-14T05:04:02;12.20;99.90
2391;DHT22;22957;50.824;4.360;2024-02-14T05:06:28;12.30;99.90
2391;DHT22;22957;50.824;4.360;2024-02-14T05:08:54;12.10;99.90
2391;DHT22;22957;50.824;4.360;2024-02-14T05:11:19;12.50;99.90
2391;DHT22;22957;50.824;4.360;2024-02-14T05:13:45;12.50;99.90
2391;DHT22;22957;50.824;4.360;2024-02-14T05:16:12;12.60;99.90
2391;DHT22;22957;50.824;4.360;2024-02-14T05:18:38;12.10;99.90
2391;DHT22;22957;50.824;4.360;2024-02-14T05:21:07;12.20;99.90
2391;DHT22;22957;50.824;4.360;2024-02-14T05:23:33;11.80;99.90
2391;DHT22;22957;50.824;4.360;2024-02-14T05:26:00;12.40;99.90
2391;DHT22;22957;50.824;4.360;2024-02-14T05:28:27;12.40;99.90
2391;DHT22;22957;50.824;4.360;2024-02-14T05:30:53;12.40;99.90
2391;DHT22;22957;50.824;4.360;2024-02-14T05:33:19;12.50;99.90
2391;DHT22;22957;50.824;4.360;2024-02-14T05:35:50;12.30;99.90
2391;DHT22;22957;50.824;4.360;2024-02-14T05:38:17;12.70;99.90
2391;DHT22;22957;50.824;4.360;2024-02-14T05:40:45;12.70;99.90
2391;DHT22;22957;50.824;4.360;2024-02-14T05:43:10;12.80;99.90
2391;DHT22;22957;50.824;4.360;2024-02-14T05:45:36;12.50;99.90
2391;DHT22;22957;50.824;4.360;2024-02-14T05:48:02;12.50;99.90
2391;DHT22;22957;50.824;4.360;2024-02-14T05:50:28;12.70;99.90
2391;DHT22;22957;50.824;4.360;2024-02-14T05:52:54;12.80;99.90
2391;DHT22;22957;50.824;4.360;2024-02-14T05:55:21;12.40;99.90
2391;DHT22;22957;50.824;4.360;2024-02-14T05:57:46;12.40;99.90
2391;DHT22;22957;50.824;4.360;2024-02-14T06:00:12;12.80;99.90
2391;DHT22;22957;50.824;4.360;2024-02-14T06:02:38;12.40;99.90
2391;DHT22;22957;50.824;4.360;2024-02-14T06:05:06;12.40;99.90
2391;DHT22;22957;50.824;4.360;2024-02-14T06:07:35;12.30;99.90
2391;DHT22;22957;50.824;4.360;2024-02-14T06:10:01;12.40;99.90
2391;DHT22;22957;50.824;4.360;2024-02-14T06:12:26;12.50;99.90
2391;DHT22;22957;50.824;4.360;2024-02-14T06:14:52;12.60;99.90
2391;DHT22;22957;50.824;4.360;2024-02-14T06:17:17;12.40;99.90
2391;DHT22;22957;50.824;4.360;2024-02-14T06:19:43;12.50;99.90
2391;DHT22;22957;50.824;4.360;2024-02-14T06:22:09;12.30;99.90
2391;DHT22;22957;50.824;4.360;2024-02-14T06:24:36;12.40;99.90
2391;DHT22;22957;50.824;4.360;2024-02-14T06:27:01;12.50;99.90
2391;DHT22;22957;50.824;4.360;2024-02-14T06:29:27;12.50;99.90
2391;DHT22;22957;50.824;4.360;2024-02-14T06:31:52;12.40;99.90
2391;DHT22;22957;50.824;4.360;2024-02-14T06:34:19;12.70;99.90
2391;DHT22;22957;50.824;4.360;2024-02-14T06:36:46;12.60;99.90
2391;DHT22;22957;50.824;4.360;2024-02-14T06:39:12;12.80;99.90
2391;DHT22;22957;50.824;4.360;2024-02-14T06:41:38;12.60;99.90
2391;DHT22;22957;50.824;4.360;2024-02-14T06:44:05;12.20;99.90
2391;DHT22;22957;50.824;4.360;2024-02-14T06:46:31;12.30;99.90
2391;DHT22;22957;50.824;4.360;2024-02-14T06:48:56;12.60;99.90
2391;DHT22;22957;50.824;4.360;2024-02-14T06:51:22;12.50;99.90
2391;DHT22;22957;50.824;4.360;2024-02-14T06:53:49;12.70;99.90
2391;DHT22;22957;50.824;4.360;2024-02-14T06:56:15;12.70;99.90
2391;DHT22;22957;50.824;4.360;2024-02-14T06:58:41;12.70;99.90
2391;DHT22;22957;50.824;4.360;2024-02-14T07:01:07;12.60;99.90
2391;DHT22;22957;50.824;4.360;2024-02-14T07:03:33;12.50;99.90
2391;DHT22;22957;50.824;4.360;2024-02-14T07:05:59;12.60;99.90
2391;DHT22;22957;50.824;4.360;2024-02-14T07:08:24;13.00;99.90
2391;DHT22;22957;50.824;4.360;2024-02-14T07:10:53;12.70;99.90
2391;DHT22;22957;50.824;4.360;2024-02-14T07:13:19;12.90;99.90
2391;DHT22;22957;50.824;4.360;2024-02-14T07:15:44;12.70;99.90
2391;DHT22;22957;50.824;4.360;2024-02-14T07:18:10;12.70;99.90
2391;DHT22;22957;50.824;4.360;2024-02-14T07:20:36;13.20;99.90
2391;DHT22;22957;50.824;4.360;2024-02-14T07:23:01;12.60;99.90
2391;DHT22;22957;50.824;4.360;2024-02-14T07:25:28;12.80;99.90
2391;DHT22;22957;50.824;4.360;2024-02-14T07:27:54;12.90;99.90
2391;DHT22;22957;50.824;4.360;2024-02-14T07:30:19;12.70;99.90
2391;DHT22;22957;50.824;4.360;2024-02-14T07:32:45;12.90;99.90
2391;DHT22;22957;50.824;4.360;2024-02-14T07:35:11;13.00;99.90
2391;DHT22;22957;50.824;4.360;2024-02-14T07:37:39;13.30;99.90
2391;DHT22;22957;50.824;4.360;2024-02-14T07:40:04;13.40;99.90
2391;DHT22;22957;50.824;4.360;2024-02-14T07:42:31;13.40;99.90
2391;DHT22;22957;50.824;4.360;2024-02-14T07:44:57;13.20;99.90
2391;DHT22;22957;50.824;4.360;2024-02-14T07:47:22;13.20;99.90
2391;DHT22;22957;50.824;4.360;2024-02-14T07:49:48;13.00;99.90
2391;DHT22;22957;50.824;4.360;2024-02-14T07:52:13;12.90;99.90
2391;DHT22;22957;50.824;4.360;2024-02-14T07:54:39;12.90;99.90
2391;DHT22;22957;50.824;4.360;2024-02-14T07:57:05;13.40;99.90
2391;DHT22;22957;50.824;4.360;2024-02-14T07:59:30;13.20;99.90
2391;DHT22;22957;50.824;4.360;2024-02-14T08:01:56;13.30;99.90
2391;DHT22;22957;50.824;4.360;2024-02-14T08:04:22;12.90;99.90
2391;DHT22;22957;50.824;4.360;2024-02-14T08:06:48;13.10;99.90
2391;DHT22;22957;50.824;4.360;2024-02-14T08:09:16;12.90;99.90
2391;DHT22;22957;50.824;4.360;2024-02-14T08:11:42;12.70;99.90
2391;DHT22;22957;50.824;4.360;2024-02-14T08:14:08;13.00;99.90
2391;DHT22;22957;50.824;4.360;2024-02-14T08:16:33;13.10;99.90
2391;DHT22;22957;50.824;4.360;2024-02-14T08:18:59;12.90;99.90
2391;DHT22;22957;50.824;4.360;2024-02-14T08:21:26;12.80;99.90
2391;DHT22;22957;50.824;4.360;2024-02-14T08:23:52;13.30;99.90
2391;DHT22;22957;50.824;4.360;2024-02-14T08:26:18;13.20;99.90
2391;DHT22;22957;50.824;4.360;2024-02-14T08:28:43;12.90;99.90
2391;DHT22;22957;50.824;4.360;2024-02-14T08:31:12;13.30;99.90
2391;DHT22;22957;50.824;4.360;2024-02-14T08:33:38;13.10;99.90
2391;DHT22;22957;50.824;4.360;2024-02-14T08:36:04;13.10;99.90
2391;DHT22;22957;50.824;4.360;2024-02-14T08:38:30;13.40;99.90
2391;DHT22;22957;50.824;4.360;2024-02-14T08:40:56;13.30;99.90
2391;DHT22;22957;50.824;4.360;2024-02-14T08:43:22;13.30;99.90
2391;DHT22;22957;50.824;4.360;2024-02-14T08:45:50;13.20;99.90
2391;DHT22;22957;50.824;4.360;2024-02-14T08:48:17;13.30;99.90
2391;DHT22;22957;50.824;4.360;2024-02-14T08:50:42;13.70;99.90
2391;DHT22;22957;50.824;4.360;2024-02-14T08:53:09;13.70;99.90
2391;DHT22;22957;50.824;4.360;2024-02-14T08:55:35;13.60;99.90
2391;DHT22;22957;50.824;4.360;2024-02-14T08:58:01;13.40;99.90
2391;DHT22;22957;50.824;4.360;2024-02-14T09:00:27;13.40;99.90
2391;DHT22;22957;50.824;4.360;2024-02-14T09:02:53;13.40;99.90
2391;DHT22;22957;50.824;4.360;2024-02-14T09:05:18;13.50;99.90
2391;DHT22;22957;50.824;4.360;2024-02-14T09:07:44;13.20;99.90
2391;DHT22;22957;50.824;4.360;2024-02-14T09:10:10;13.50;99.90
2391;DHT22;22957;50.824;4.360;2024-02-14T09:12:38;13.40;99.90
2391;DHT22;22957;50.824;4.360;2024-02-14T09:15:05;13.60;99.90
2391;DHT22;22957;50.824;4.360;2024-02-14T09:17:30;13.80;99.90
2391;DHT22;22957;50.824;4.360;2024-02-14T09:19:56;13.20;99.90
2391;DHT22;22957;50.824;4.360;2024-02-14T09:22:22;13.60;99.90
2391;DHT22;22957;50.824;4.360;2024-02-14T09:24:48;13.90;99.90
2391;DHT22;22957;50.824;4.360;2024-02-14T09:27:14;13.70;99.90
2391;DHT22;22957;50.824;4.360;2024-02-14T09:29:40;13.50;99.90
2391;DHT22;22957;50.824;4.360;2024-02-14T09:32:05;13.70;99.90
2391;DHT22;22957;50.824;4.360;2024-02-14T09:34:31;13.70;99.90
2391;DHT22;22957;50.824;4.360;2024-02-14T09:36:56;13.70;99.90
2391;DHT22;22957;50.824;4.360;2024-02-14T09:39:24;13.40;99.90
2391;DHT22;22957;50.824;4.360;2024-02-14T09:41:56;13.30;99.90
2391;DHT22;22957;50.824;4.360;2024-02-14T09:44:27;13.40;99.90
2391;DHT22;22957;50.824;4.360;2024-02-14T09:46:55;13.50;99.90
2391;DHT22;22957;50.824;4.360;2024-02-14T09:49:21;13.60;99.90
2391;DHT22;22957;50.824;4.360;2024-02-14T09:51:48;13.60;99.90
2391;DHT22;22957;50.824;4.360;2024-02-14T09:54:16;13.80;99.90
2391;DHT22;22957;50.824;4.360;2024-02-14T09:56:43;13.40;99.90
2391;DHT22;22957;50.824;4.360;2024-02-14T09:59:13;13.90;99.90
2391;DHT22;22957;50.824;4.360;2024-02-14T10:01:40;13.80;99.90
2391;DHT22;22957;50.824;4.360;2024-02-14T10:04:06;13.40;99.90
2391;DHT22;22957;50.824;4.360;2024-02-14T10:06:32;13.80;99.90
2391;DHT22;22957;50.824;4.360;2024-02-14T10:08:59;13.50;99.90
2391;DHT22;22957;50.824;4.360;2024-02-14T10:11:24;13.30;99.90
2391;DHT22;22957;50.824;4.360;2024-02-14T10:13:52;13.80;99.90
2391;DHT22;22957;50.824;4.360;2024-02-14T10:16:19;13.80;99.90
2391;DHT22;22957;50.824;4.360;2024-02-14T10:18:45;13.40;99.90
2391;DHT22;22957;50.824;4.360;2024-02-14T10:21:15;13.50;99.90
2391;DHT22;22957;50.824;4.360;2024-02-14T10:23:44;13.40;99.90
2391;DHT22;22957;50.824;4.360;2024-02-14T10:26:10;13.40;99.90
2391;DHT22;22957;50.824;4.360;2024-02-14T10:28:36;13.40;99.90
2391;DHT22;22957;50.824;4.360;2024-02-14T10:31:02;13.90;99.90
2391;DHT22;22957;50.824;4.360;2024-02-14T10:33:28;13.80;99.90
2391;DHT22;22957;50.824;4.360;2024-02-14T10:35:55;13.70;99.90
2391;DHT22;22957;50.824;4.360;2024-02-14T10:38:22;13.70;99.90
2391;DHT22;22957;50.824;4.360;2024-02-14T10:40:48;13.70;99.90
2391;DHT22;22957;50.824;4.360;2024-02-14T10:43:14;13.80;99.90
2391;DHT22;22957;50.824;4.360;2024-02-14T10:45:40;13.70;99.90
2391;DHT22;22957;50.824;4.360;2024-02-14T10:48:07;13.70;99.90
2391;DHT22;22957;50.824;4.360;2024-02-14T10:50:36;13.90;99.90
2391;DHT22;22957;50.824;4.360;2024-02-14T10:53:06;13.80;99.90
2391;DHT22;22957;50.824;4.360;2024-02-14T10:55:36;13.60;99.90
2391;DHT22;22957;50.824;4.360;2024-02-14T10:58:03;13.90;99.90
2391;DHT22;22957;50.824;4.360;2024-02-14T11:00:29;14.00;99.90
2391;DHT22;22957;50.824;4.360;2024-02-14T11:02:55;13.80;99.90
2391;DHT22;22957;50.824;4.360;2024-02-14T11:05:21;14.00;99.90
2391;DHT22;22957;50.824;4.360;2024-02-14T11:07:49;13.80;99.90
2391;DHT22;22957;50.824;4.360;2024-02-14T11:10:19;13.80;99.90
2391;DHT22;22957;50.824;4.360;2024-02-14T11:12:47;13.70;99.90
2391;DHT22;22957;50.824;4.360;2024-02-14T11:15:19;13.90;99.90
2391;DHT22;22957;50.824;4.360;2024-02-14T11:17:46;14.10;99.90
2391;DHT22;22957;50.824;4.360;2024-02-14T11:20:18;13.80;99.90
2391;DHT22;22957;50.824;4.360;2024-02-14T11:22:56;13.90;99.90
2391;DHT22;22957;50.824;4.360;2024-02-14T11:25:27;13.80;99.90
2391;DHT22;22957;50.824;4.360;2024-02-14T11:27:53;13.70;99.90
2391;DHT22;22957;50.824;4.360;2024-02-14T11:30:33;14.00;99.90
2391;DHT22;22957;50.824;4.360;2024-02-14T11:33:20;14.00;99.90
2391;DHT22;22957;50.824;4.360;2024-02-14T11:35:50;13.90;99.90
2391;DHT22;22957;50.824;4.360;2024-02-14T11:38:17;13.90;99.90
2391;DHT22;22957;50.824;4.360;2024-02-14T11:40:43;13.80;99.90
2391;DHT22;22957;50.824;4.360;2024-02-14T11:43:17;13.70;99.90
2391;DHT22;22957;50.824;4.360;2024-02-14T11:45:44;14.00;99.90
2391;DHT22;22957;50.824;4.360;2024-02-14T11:48:14;13.70;99.90
2391;DHT22;22957;50.824;4.360;2024-02-14T11:50:40;13.50;99.90
2391;DHT22;22957;50.824;4.360;2024-02-14T11:53:07;13.50;99.90
2391;DHT22;22957;50.824;4.360;2024-02-14T11:55:37;13.60;99.90
2391;DHT22;22957;50.824;4.360;2024-02-14T11:58:17;13.60;99.90
2391;DHT22;22957;50.824;4.360;2024-02-14T12:00:44;13.70;99.90
2391;DHT22;22957;50.824;4.360;2024-02-14T12:03:18;13.70;99.90
2391;DHT22;22957;50.824;4.360;2024-02-14T12:05:45;13.90;99.90
2391;DHT22;22957;50.824;4.360;2024-02-14T12:08:13;14.10;99.90
2391;DHT22;22957;50.824;4.360;2024-02-14T12:10:39;14.10;99.90
2391;DHT22;22957;50.824;4.360;2024-02-14T12:13:11;14.20;99.90
2391;DHT22;22957;50.824;4.360;2024-02-14T12:15:41;14.00;99.90
2391;DHT22;22957;50.824;4.360;2024-02-14T12:18:11;13.80;99.90
2391;DHT22;22957;50.824;4.360;2024-02-14T12:20:41;14.40;99.90
2391;DHT22;22957;50.824;4.360;2024-02-14T12:23:07;14.10;99.90
2391;DHT22;22957;50.824;4.360;2024-02-14T12:25:33;14.10;99.90
2391;DHT22;22957;50.824;4.360;2024-02-14T12:27:59;14.30;99.90
2391;DHT22;22957;50.824;4.360;2024-02-14T12:30:45;14.40;99.90
2391;DHT22;22957;50.824;4.360;2024-02-14T12:33:13;14.00;99.90
2391;DHT22;22957;50.824;4.360;2024-02-14T12:35:46;13.90;99.90
2391;DHT22;22957;50.824;4.360;2024-02-14T12:38:13;14.00;99.90
2391;DHT22;22957;50.824;4.360;2024-02-14T12:40:40;13.90;99.90
2391;DHT22;22957;50.824;4.360;2024-02-14T12:43:10;14.10;99.90
2391;DHT22;22957;50.824;4.360;2024-02-14T12:45:37;14.30;99.90
2391;DHT22;22957;50.824;4.360;2024-02-14T12:48:03;14.60;99.90
2391;DHT22;22957;50.824;4.360;2024-02-14T12:50:30;14.30;99.90
2391;DHT22;22957;50.824;4.360;2024-02-14T12:52:56;14.30;99.90
2391;DHT22;22957;50.824;4.360;2024-02-14T12:55:21;14.40;99.90
2391;DHT22;22957;50.824;4.360;2024-02-14T12:57:51;14.50;99.90
2391;DHT22;22957;50.824;4.360;2024-02-14T13:00:17;14.30;99.90
2391;DHT22;22957;50.824;4.360;2024-02-14T13:02:42;14.40;99.90
2391;DHT22;22957;50.824;4.360;2024-02-14T13:05:08;14.50;99.90
2391;DHT22;22957;50.824;4.360;2024-02-14T13:07:34;14.50;99.90
2391;DHT22;22957;50.824;4.360;2024-02-14T13:09:59;14.60;99.90
2391;DHT22;22957;50.824;4.360;2024-02-14T13:12:26;14.50;99.90
2391;DHT22;22957;50.824;4.360;2024-02-14T13:14:51;14.30;99.90
2391;DHT22;22957;50.824;4.360;2024-02-14T13:17:17;14.60;99.90
2391;DHT22;22957;50.824;4.360;2024-02-14T13:19:42;14.60;99.90
2391;DHT22;22957;50.824;4.360;2024-02-14T13:22:08;14.30;99.90
2391;DHT22;22957;50.824;4.360;2024-02-14T13:24:34;14.40;99.90
2391;DHT22;22957;50.824;4.360;2024-02-14T13:27:00;14.20;99.90
2391;DHT22;22957;50.824;4.360;2024-02-14T13:29:25;14.60;99.90
2391;DHT22;22957;50.824;4.360;2024-02-14T13:31:51;14.40;99.90
2391;DHT22;22957;50.824;4.360;2024-02-14T13:34:17;14.50;99.90
2391;DHT22;22957;50.824;4.360;2024-02-14T13:36:45;14.40;99.90
2391;DHT22;22957;50.824;4.360;2024-02-14T13:39:11;14.50;99.90
2391;DHT22;22957;50.824;4.360;2024-02-14T13:41:38;14.40;99.90
2391;DHT22;22957;50.824;4.360;2024-02-14T13:44:06;14.40;99.90
2391;DHT22;22957;50.824;4.360;2024-02-14T13:46:31;14.50;99.90
2391;DHT22;22957;50.824;4.360;2024-02-14T13:48:57;14.60;99.90
2391;DHT22;22957;50.824;4.360;2024-02-14T13:51:23;14.40;99.90
2391;DHT22;22957;50.824;4.360;2024-02-14T13:53:49;14.10;99.90
2391;DHT22;22957;50.824;4.360;2024-02-14T13:56:14;14.40;99.90
2391;DHT22;22957;50.824;4.360;2024-02-14T13:58:41;14.10;99.90
2391;DHT22;22957;50.824;4.360;2024-02-14T14:01:07;14.30;99.90
2391;DHT22;22957;50.824;4.360;2024-02-14T14:03:33;14.20;99.90
2391;DHT22;22957;50.824;4.360;2024-02-14T14:06:02;14.20;99.90
2391;DHT22;22957;50.824;4.360;2024-02-14T14:08:29;14.10;99.90
2391;DHT22;22957;50.824;4.360;2024-02-14T14:10:55;13.90;99.90
2391;DHT22;22957;50.824;4.360;2024-02-14T14:13:20;14.10;99.90
2391;DHT22;22957;50.824;4.360;2024-02-14T14:15:46;14.30;99.90
2391;DHT22;22957;50.824;4.360;2024-02-14T14:18:11;14.00;99.90
2391;DHT22;22957;50.824;4.360;2024-02-14T14:20:37;13.70;99.90
2391;DHT22;22957;50.824;4.360;2024-02-14T14:23:03;14.00;99.90
2391;DHT22;22957;50.824;4.360;2024-02-14T14:25:29;14.30;99.90
2391;DHT22;22957;50.824;4.360;2024-02-14T14:27:57;14.30;99.90
2391;DHT22;22957;50.824;4.360;2024-02-14T14:30:24;14.20;99.90
2391;DHT22;22957;50.824;4.360;2024-02-14T14:32:49;14.20;99.90
2391;DHT22;22957;50.824;4.360;2024-02-14T14:35:15;14.30;99.90
2391;DHT22;22957;50.824;4.360;2024-02-14T14:37:40;14.50;99.90
2391;DHT22;22957;50.824;4.360;2024-02-14T14:40:06;14.40;99.90
2391;DHT22;22957;50.824;4.360;2024-02-14T14:42:33;14.60;99.90
2391;DHT22;22957;50.824;4.360;2024-02-14T14:44:59;14.70;99.90
2391;DHT22;22957;50.824;4.360;2024-02-14T14:47:24;14.50;99.90
2391;DHT22;22957;50.824;4.360;2024-02-14T14:49:50;14.40;99.90
2391;DHT22;22957;50.824;4.360;2024-02-14T14:52:16;14.80;99.90
2391;DHT22;22957;50.824;4.360;2024-02-14T14:54:42;14.50;99.90
2391;DHT22;22957;50.824;4.360;2024-02-14T14:57:07;14.50;99.90
2391;DHT22;22957;50.824;4.360;2024-02-14T14:59:40;14.60;99.90
2391;DHT22;22957;50.824;4.360;2024-02-14T15:02:06;15.00;99.90
2391;DHT22;22957;50.824;4.360;2024-02-14T15:04:32;14.90;99.90
2391;DHT22;22957;50.824;4.360;2024-02-14T15:07:00;14.70;99.90
2391;DHT22;22957;50.824;4.360;2024-02-14T15:09:25;14.90;99.90
2391;DHT22;22957;50.824;4.360;2024-02-14T15:11:51;14.50;99.90
2391;DHT22;22957;50.824;4.360;2024-02-14T15:14:18;14.60;99.90
2391;DHT22;22957;50.824;4.360;2024-02-14T15:16:43;14.90;99.90
2391;DHT22;22957;50.824;4.360;2024-02-14T15:19:09;14.20;99.90
2391;DHT22;22957;50.824;4.360;2024-02-14T15:21:35;14.30;99.90
2391;DHT22;22957;50.824;4.360;2024-02-14T15:24:00;14.00;99.90
2391;DHT22;22957;50.824;4.360;2024-02-14T15:26:26;14.30;99.90
2391;DHT22;22957;50.824;4.360;2024-02-14T15:28:52;14.50;99.90
2391;DHT22;22957;50.824;4.360;2024-02-14T15:31:43;14.40;99.90
2391;DHT22;22957;50.824;4.360;2024-02-14T15:34:27;14.80;99.90
2391;DHT22;22957;50.824;4.360;2024-02-14T15:36:54;14.60;99.90
2391;DHT22;22957;50.824;4.360;2024-02-14T15:39:19;14.60;99.90
2391;DHT22;22957;50.824;4.360;2024-02-14T15:41:45;14.50;99.90